Time;durP1;ratioP1;P1;durP2;ratioP2;P2;SDS_P1;SDS_P2;PMS_P1;PMS_P2;Temp;Humidity;BMP_temperature;BMP_pressure;BME280_temperature;BME280_humidity;BME280_pressure;Samples;Min_cycle;Max_cycle;Signal;HPM_P1;HPM_P2
2021/09/09 00:00:19;;;;;;;15.25;12.10;;;;;;;;;;4989417;28;20254;-73
2021/09/09 00:02:44;;;;;;;16.95;12.52;;;;;;;;;;4997198;28;20186;-74
2021/09/09 00:05:10;;;;;;;17.77;12.13;;;;;;;;;;4988025;28;20253;-73
2021/09/09 00:07:36;;;;;;;17.42;12.55;;;;;;;;;;4997207;28;20293;-73
2021/09/09 00:10:04;;;;;;;21.40;12.63;;;;;;;;;;4990987;28;20194;-73
2021/09/09 00:12:30;;;;;;;18.38;12.57;;;;;;;;;;4996263;28;20190;-72
2021/09/09 00:14:55;;;;;;;16.88;12.80;;;;;;;;;;4998642;28;20673;-73
2021/09/09 00:17:20;;;;;;;17.85;12.77;;;;;;;;;;4987951;28;20194;-73
2021/09/09 00:19:46;;;;;;;17.63;12.50;;;;;;;;;;4997748;28;20205;-73
2021/09/09 00:22:11;;;;;;;17.52;13.05;;;;;;;;;;4989088;28;20195;-74
2021/09/09 00:24:36;;;;;;;17.98;13.40;;;;;;;;;;4998078;28;20194;-73
2021/09/09 00:27:02;;;;;;;20.38;12.77;;;;;;;;;;4989361;28;20210;-73
2021/09/09 00:29:28;;;;;;;17.67;13.20;;;;;;;;;;4996692;28;20223;-73
2021/09/09 00:31:53;;;;;;;17.90;12.32;;;;;;;;;;4990433;28;20199;-73
2021/09/09 00:34:18;;;;;;;20.75;12.82;;;;;;;;;;4997966;28;20183;-73
2021/09/09 00:36:44;;;;;;;20.08;14.48;;;;;;;;;;4989139;28;20285;-73
2021/09/09 00:39:10;;;;;;;19.00;13.45;;;;;;;;;;4998814;28;20186;-73
2021/09/09 00:41:35;;;;;;;19.52;13.60;;;;;;;;;;4997534;28;20738;-73
2021/09/09 00:44:01;;;;;;;18.70;12.85;;;;;;;;;;4988477;28;20530;-73
2021/09/09 00:46:27;;;;;;;17.55;13.55;;;;;;;;;;4996159;28;20228;-73
2021/09/09 00:48:52;;;;;;;18.00;13.25;;;;;;;;;;4988786;28;20190;-74
2021/09/09 00:51:18;;;;;;;17.45;13.13;;;;;;;;;;4995328;28;20187;-73
2021/09/09 00:53:45;;;;;;;19.70;13.60;;;;;;;;;;4988100;28;20200;-73
2021/09/09 00:56:12;;;;;;;21.65;14.18;;;;;;;;;;4994182;28;20546;-73
2021/09/09 00:58:41;;;;;;;22.23;14.18;;;;;;;;;;4987804;28;20585;-73
2021/09/09 01:01:07;;;;;;;23.17;14.65;;;;;;;;;;4993974;28;20728;-73
2021/09/09 01:03:32;;;;;;;20.70;13.90;;;;;;;;;;4986821;28;20565;-73
2021/09/09 01:05:58;;;;;;;22.92;14.40;;;;;;;;;;4991945;28;20230;-73
2021/09/09 01:08:24;;;;;;;21.15;15.00;;;;;;;;;;4985960;28;21477;-72
2021/09/09 01:10:50;;;;;;;20.63;15.38;;;;;;;;;;4997350;28;20191;-73
2021/09/09 01:13:15;;;;;;;23.23;15.80;;;;;;;;;;4991264;28;20192;-74
2021/09/09 01:15:42;;;;;;;20.92;15.15;;;;;;;;;;4986237;28;20215;-72
2021/09/09 01:18:10;;;;;;;19.92;14.43;;;;;;;;;;4993700;28;20675;-72
2021/09/09 01:20:35;;;;;;;19.52;15.00;;;;;;;;;;4986501;28;20237;-73
2021/09/09 01:23:01;;;;;;;20.17;16.20;;;;;;;;;;4993563;28;20187;-73
2021/09/09 01:25:26;;;;;;;25.15;15.77;;;;;;;;;;4982576;28;20190;-72
2021/09/09 01:27:52;;;;;;;21.48;15.90;;;;;;;;;;4991493;28;20323;-73
2021/09/09 01:30:17;;;;;;;22.48;15.80;;;;;;;;;;4984736;28;20205;-73
2021/09/09 01:32:42;;;;;;;23.52;15.60;;;;;;;;;;4990481;28;20183;-74
2021/09/09 01:35:08;;;;;;;22.52;15.93;;;;;;;;;;4985067;28;21182;-72
2021/09/09 01:37:34;;;;;;;21.48;15.52;;;;;;;;;;4992166;28;20206;-72
2021/09/09 01:39:59;;;;;;;21.27;16.13;;;;;;;;;;4984521;28;20192;-72
2021/09/09 01:42:25;;;;;;;21.52;15.13;;;;;;;;;;4991999;28;20195;-73
2021/09/09 01:44:50;;;;;;;21.55;16.73;;;;;;;;;;4994334;28;20274;-73
2021/09/09 01:47:16;;;;;;;23.77;15.85;;;;;;;;;;4987013;28;20698;-72
2021/09/09 01:49:41;;;;;;;23.30;16.60;;;;;;;;;;4999194;28;20221;-72
2021/09/09 01:52:06;;;;;;;24.40;15.20;;;;;;;;;;4987558;28;20256;-73
2021/09/09 01:54:32;;;;;;;24.02;16.15;;;;;;;;;;4999581;28;20203;-72
2021/09/09 01:56:57;;;;;;;26.02;17.23;;;;;;;;;;4993418;28;20325;-72
2021/09/09 01:59:23;;;;;;;22.45;16.05;;;;;;;;;;4999363;28;20244;-72
2021/09/09 02:01:48;;;;;;;22.52;16.25;;;;;;;;;;4993581;28;20195;-72
2021/09/09 02:04:13;;;;;;;24.85;17.42;;;;;;;;;;5000564;28;20238;-72
2021/09/09 02:06:39;;;;;;;25.27;16.73;;;;;;;;;;4993505;28;20195;-72
2021/09/09 02:09:04;;;;;;;23.27;17.40;;;;;;;;;;5001065;28;20202;-72
2021/09/09 02:11:30;;;;;;;22.70;17.67;;;;;;;;;;4996334;28;20257;-72
2021/09/09 02:13:55;;;;;;;23.92;16.85;;;;;;;;;;4997131;28;20191;-72
2021/09/09 02:16:21;;;;;;;24.33;17.35;;;;;;;;;;4998834;28;20191;-72
2021/09/09 02:18:46;;;;;;;22.55;16.40;;;;;;;;;;4991961;28;20293;-72
2021/09/09 02:21:12;;;;;;;25.17;17.08;;;;;;;;;;4999357;28;20194;-72
2021/09/09 02:23:38;;;;;;;24.95;18.20;;;;;;;;;;4991342;28;20617;-72
2021/09/09 02:26:04;;;;;;;24.50;17.48;;;;;;;;;;4998276;28;20225;-72
2021/09/09 02:28:29;;;;;;;23.50;17.17;;;;;;;;;;4991526;28;20775;-72
2021/09/09 02:30:55;;;;;;;23.55;17.50;;;;;;;;;;5001167;28;20191;-72
2021/09/09 02:33:20;;;;;;;21.88;17.17;;;;;;;;;;4991661;28;20634;-72
2021/09/09 02:35:46;;;;;;;27.83;17.17;;;;;;;;;;4998667;28;20202;-72
2021/09/09 02:38:12;;;;;;;25.35;17.90;;;;;;;;;;4992565;28;20183;-72
2021/09/09 02:40:37;;;;;;;26.17;17.85;;;;;;;;;;5000445;28;20186;-72
2021/09/09 02:43:03;;;;;;;25.42;17.73;;;;;;;;;;5000769;28;20646;-72
2021/09/09 02:45:28;;;;;;;27.88;19.02;;;;;;;;;;4991588;28;20198;-72
2021/09/09 02:47:53;;;;;;;24.50;18.58;;;;;;;;;;5000994;28;20210;-72
2021/09/09 02:50:19;;;;;;;24.63;17.75;;;;;;;;;;4990047;28;20190;-72
2021/09/09 02:52:44;;;;;;;26.40;17.10;;;;;;;;;;4999398;28;20195;-72
2021/09/09 02:55:10;;;;;;;27.52;18.98;;;;;;;;;;4992311;28;20253;-72
2021/09/09 02:57:37;;;;;;;28.73;19.60;;;;;;;;;;5000864;28;20207;-73
2021/09/09 03:00:04;;;;;;;26.17;19.23;;;;;;;;;;4993859;28;20187;-72
2021/09/09 03:02:30;;;;;;;25.48;18.45;;;;;;;;;;4998599;28;20191;-72
2021/09/09 03:04:55;;;;;;;27.55;20.25;;;;;;;;;;4992786;28;20249;-72
2021/09/09 03:07:20;;;;;;;26.00;18.90;;;;;;;;;;4999131;28;20211;-72
2021/09/09 03:09:46;;;;;;;27.60;18.85;;;;;;;;;;4991387;28;20499;-72
2021/09/09 03:12:11;;;;;;;25.23;18.08;;;;;;;;;;4999221;28;20535;-72
2021/09/09 03:14:36;;;;;;;26.30;19.92;;;;;;;;;;4997390;28;20214;-72
2021/09/09 03:17:02;;;;;;;26.45;19.25;;;;;;;;;;4992023;28;20191;-72
2021/09/09 03:19:28;;;;;;;25.63;18.63;;;;;;;;;;4996627;28;20194;-72
2021/09/09 03:21:53;;;;;;;24.67;18.92;;;;;;;;;;4991164;28;21025;-72
2021/09/09 03:24:19;;;;;;;26.02;19.10;;;;;;;;;;4998900;28;20210;-72
2021/09/09 03:26:44;;;;;;;31.00;22.08;;;;;;;;;;4991509;28;20673;-72
2021/09/09 03:29:10;;;;;;;32.72;21.45;;;;;;;;;;4997598;28;20330;-72
2021/09/09 03:31:35;;;;;;;27.40;20.70;;;;;;;;;;4992726;28;20277;-72
2021/09/09 03:34:00;;;;;;;30.17;21.27;;;;;;;;;;4998671;28;20537;-72
2021/09/09 03:36:26;;;;;;;31.92;21.50;;;;;;;;;;4991597;28;20241;-72
2021/09/09 03:38:51;;;;;;;27.83;21.88;;;;;;;;;;4998819;28;20186;-72
2021/09/09 03:41:16;;;;;;;30.40;21.65;;;;;;;;;;4998336;28;20681;-72
2021/09/09 03:43:42;;;;;;;27.45;21.45;;;;;;;;;;4990855;28;20198;-72
2021/09/09 03:46:07;;;;;;;34.55;22.95;;;;;;;;;;4998683;28;20635;-72
2021/09/09 03:48:33;;;;;;;33.28;23.13;;;;;;;;;;4989318;28;20246;-72
2021/09/09 03:50:58;;;;;;;30.30;21.15;;;;;;;;;;4999497;28;20217;-72
2021/09/09 03:53:24;;;;;;;31.30;22.27;;;;;;;;;;4990234;28;20329;-72
2021/09/09 03:55:49;;;;;;;33.05;22.05;;;;;;;;;;4996576;28;20190;-72
2021/09/09 03:58:14;;;;;;;31.27;23.05;;;;;;;;;;4989032;28;20608;-72
2021/09/09 04:00:40;;;;;;;34.08;23.45;;;;;;;;;;4999258;28;20634;-73
2021/09/09 04:03:05;;;;;;;32.60;22.75;;;;;;;;;;4988507;28;20182;-72
2021/09/09 04:05:31;;;;;;;32.83;22.40;;;;;;;;;;4997590;28;20230;-73
2021/09/09 04:07:57;;;;;;;30.67;22.08;;;;;;;;;;4989876;28;20628;-73
2021/09/09 04:10:22;;;;;;;31.27;21.67;;;;;;;;;;4997235;28;20265;-73
2021/09/09 04:12:48;;;;;;;31.45;21.52;;;;;;;;;;4996588;28;20658;-73
2021/09/09 04:15:13;;;;;;;33.65;23.90;;;;;;;;;;4991672;28;20202;-73
2021/09/09 04:17:39;;;;;;;36.90;23.58;;;;;;;;;;4997980;28;20631;-73
2021/09/09 04:20:05;;;;;;;31.23;22.23;;;;;;;;;;4990738;28;20277;-73
2021/09/09 04:22:30;;;;;;;29.27;21.48;;;;;;;;;;4994436;28;20191;-73
2021/09/09 04:24:56;;;;;;;34.90;23.00;;;;;;;;;;4987672;28;20257;-73
2021/09/09 04:27:22;;;;;;;32.97;23.95;;;;;;;;;;4993524;28;21670;-72
2021/09/09 04:29:50;;;;;;;36.50;23.52;;;;;;;;;;4987476;28;20562;-73
2021/09/09 04:32:15;;;;;;;33.10;23.25;;;;;;;;;;4994670;28;20262;-73
2021/09/09 04:34:41;;;;;;;33.92;23.25;;;;;;;;;;4986397;28;20191;-72
2021/09/09 04:37:06;;;;;;;29.85;21.95;;;;;;;;;;4995747;28;20221;-72
2021/09/09 04:39:31;;;;;;;32.60;22.20;;;;;;;;;;4991047;28;20261;-73
2021/09/09 04:41:58;;;;;;;32.17;23.30;;;;;;;;;;4994402;28;20199;-72
2021/09/09 04:44:23;;;;;;;28.27;21.20;;;;;;;;;;4993860;28;20710;-73
2021/09/09 04:46:49;;;;;;;30.35;22.88;;;;;;;;;;4988800;28;20278;-72
2021/09/09 04:49:14;;;;;;;33.60;23.73;;;;;;;;;;4997123;28;20634;-73
2021/09/09 04:51:40;;;;;;;36.83;25.48;;;;;;;;;;4986457;28;20191;-72
2021/09/09 04:54:05;;;;;;;35.50;24.48;;;;;;;;;;4996019;28;20197;-73
2021/09/09 04:56:30;;;;;;;33.35;23.08;;;;;;;;;;4985167;28;20221;-72
2021/09/09 04:58:57;;;;;;;32.78;23.00;;;;;;;;;;4996157;28;20221;-72
2021/09/09 05:01:23;;;;;;;32.60;22.67;;;;;;;;;;4983628;28;20198;-72
2021/09/09 05:03:48;;;;;;;29.88;21.55;;;;;;;;;;4995191;28;20673;-72
2021/09/09 05:06:13;;;;;;;28.08;20.95;;;;;;;;;;4982335;28;20238;-73
2021/09/09 05:08:39;;;;;;;32.00;22.25;;;;;;;;;;4996769;28;20211;-73
2021/09/09 05:11:08;;;;;;;31.13;21.52;;;;;;;;;;4994151;28;20187;-73
2021/09/09 05:13:33;;;;;;;35.38;24.52;;;;;;;;;;4989248;28;21611;-73
2021/09/09 05:15:58;;;;;;;34.67;24.23;;;;;;;;;;4992024;28;20202;-72
2021/09/09 05:18:24;;;;;;;34.05;25.27;;;;;;;;;;4988766;28;20193;-73
2021/09/09 05:20:49;;;;;;;37.28;25.60;;;;;;;;;;4993679;28;20179;-73
2021/09/09 05:23:15;;;;;;;37.15;26.25;;;;;;;;;;4989834;28;20203;-73
2021/09/09 05:25:40;;;;;;;37.92;26.42;;;;;;;;;;4994807;28;20187;-73
2021/09/09 05:28:06;;;;;;;36.15;25.92;;;;;;;;;;4995575;28;20233;-73
2021/09/09 05:30:31;;;;;;;36.75;26.00;;;;;;;;;;5001895;28;20517;-73
2021/09/09 05:32:57;;;;;;;38.35;25.90;;;;;;;;;;4995861;28;20203;-73
2021/09/09 05:35:22;;;;;;;37.45;25.73;;;;;;;;;;5000265;28;20191;-73
2021/09/09 05:37:48;;;;;;;41.58;26.73;;;;;;;;;;4993131;28;20195;-73
2021/09/09 05:40:13;;;;;;;41.17;26.90;;;;;;;;;;5001517;28;20199;-73
2021/09/09 05:42:38;;;;;;;42.30;27.58;;;;;;;;;;5002802;28;20187;-73
2021/09/09 05:45:04;;;;;;;39.97;29.00;;;;;;;;;;4993706;28;20664;-72
2021/09/09 05:47:30;;;;;;;38.95;28.17;;;;;;;;;;4999848;28;20198;-72
2021/09/09 05:49:55;;;;;;;40.88;27.67;;;;;;;;;;4994092;28;20223;-73
2021/09/09 05:52:21;;;;;;;37.83;27.60;;;;;;;;;;5000893;28;20176;-72
2021/09/09 05:54:46;;;;;;;40.15;28.02;;;;;;;;;;4995428;28;20203;-73
2021/09/09 05:57:12;;;;;;;41.67;28.90;;;;;;;;;;5001535;28;20291;-73
2021/09/09 05:59:37;;;;;;;38.17;27.40;;;;;;;;;;4995124;28;20195;-72
2021/09/09 06:02:04;;;;;;;37.67;26.02;;;;;;;;;;5002557;28;20212;-72
2021/09/09 06:04:34;;;;;;;37.30;26.98;;;;;;;;;;4990251;28;20756;-73
2021/09/09 06:07:00;;;;;;;42.97;29.48;;;;;;;;;;5002899;28;20171;-73
2021/09/09 06:09:25;;;;;;;43.25;27.63;;;;;;;;;;4993302;28;20656;-72
2021/09/09 06:11:51;;;;;;;38.55;27.02;;;;;;;;;;4997004;28;20183;-72
2021/09/09 06:14:16;;;;;;;41.25;27.95;;;;;;;;;;4999462;28;20195;-72
2021/09/09 06:16:41;;;;;;;42.50;27.17;;;;;;;;;;4993640;28;20505;-72
2021/09/09 06:19:07;;;;;;;41.83;26.90;;;;;;;;;;4998884;28;20187;-73
2021/09/09 06:21:32;;;;;;;37.38;26.45;;;;;;;;;;4996127;28;20215;-73
2021/09/09 06:23:57;;;;;;;40.90;28.00;;;;;;;;;;5000362;28;20323;-72
2021/09/09 06:26:23;;;;;;;38.55;27.48;;;;;;;;;;4995454;28;20191;-72
2021/09/09 06:28:48;;;;;;;39.28;27.77;;;;;;;;;;5002214;28;20211;-73
2021/09/09 06:31:15;;;;;;;39.85;27.45;;;;;;;;;;4992216;28;20202;-72
2021/09/09 06:33:40;;;;;;;39.15;25.65;;;;;;;;;;4999858;28;20190;-73
2021/09/09 06:36:06;;;;;;;39.30;26.08;;;;;;;;;;4994092;28;20596;-72
2021/09/09 06:38:31;;;;;;;34.67;23.75;;;;;;;;;;5000637;28;20638;-72
2021/09/09 06:40:57;;;;;;;38.63;27.38;;;;;;;;;;4998452;28;20229;-73
2021/09/09 06:43:22;;;;;;;34.80;25.60;;;;;;;;;;4996418;28;20550;-73
2021/09/09 06:45:47;;;;;;;37.63;25.80;;;;;;;;;;4999835;28;20231;-73
2021/09/09 06:48:13;;;;;;;37.25;26.35;;;;;;;;;;4991430;28;20214;-73
2021/09/09 06:50:39;;;;;;;37.08;26.42;;;;;;;;;;5001306;28;20471;-72
2021/09/09 06:53:04;;;;;;;36.05;25.42;;;;;;;;;;4993228;28;20191;-72
2021/09/09 06:55:30;;;;;;;37.58;25.48;;;;;;;;;;5001172;28;20187;-72
2021/09/09 06:57:57;;;;;;;36.88;26.55;;;;;;;;;;4992191;28;20567;-72
2021/09/09 07:00:22;;;;;;;32.50;24.67;;;;;;;;;;4997252;28;20222;-73
2021/09/09 07:02:47;;;;;;;34.55;24.98;;;;;;;;;;4991773;28;20221;-73
2021/09/09 07:05:13;;;;;;;34.17;24.10;;;;;;;;;;5000073;28;20226;-73
2021/09/09 07:07:39;;;;;;;34.53;24.52;;;;;;;;;;4990612;28;20275;-72
2021/09/09 07:10:06;;;;;;;29.80;23.65;;;;;;;;;;5001220;28;20207;-72
2021/09/09 07:12:32;;;;;;;34.10;24.13;;;;;;;;;;5000163;28;20270;-72
2021/09/09 07:14:57;;;;;;;33.15;24.42;;;;;;;;;;4993228;28;20318;-72
2021/09/09 07:17:22;;;;;;;30.42;23.88;;;;;;;;;;4999386;28;20223;-73
2021/09/09 07:19:48;;;;;;;33.13;22.48;;;;;;;;;;4991943;28;20208;-73
2021/09/09 07:22:13;;;;;;;30.83;24.10;;;;;;;;;;5011463;28;20202;-72
2021/09/09 07:24:39;;;;;;;30.15;22.67;;;;;;;;;;4991168;28;20229;-72
2021/09/09 07:27:04;;;;;;;30.92;23.45;;;;;;;;;;4999389;28;20235;-72
2021/09/09 07:29:29;;;;;;;32.70;24.50;;;;;;;;;;4993935;28;20619;-72
2021/09/09 07:31:55;;;;;;;32.03;23.20;;;;;;;;;;4999485;28;20332;-72
2021/09/09 07:34:20;;;;;;;27.75;21.90;;;;;;;;;;4994162;28;20197;-72
2021/09/09 07:36:45;;;;;;;33.67;22.25;;;;;;;;;;4998611;28;20232;-73
2021/09/09 07:39:11;;;;;;;29.92;22.42;;;;;;;;;;4991173;28;20591;-73
2021/09/09 07:41:36;;;;;;;29.45;21.23;;;;;;;;;;4998146;28;20237;-73
2021/09/09 07:44:02;;;;;;;30.88;22.65;;;;;;;;;;5000854;28;20254;-73
2021/09/09 07:46:27;;;;;;;34.83;22.75;;;;;;;;;;4989708;28;20544;-73
2021/09/09 07:48:53;;;;;;;30.35;22.50;;;;;;;;;;4998793;28;20199;-73
2021/09/09 07:51:19;;;;;;;29.80;22.55;;;;;;;;;;4992174;28;20273;-73
2021/09/09 07:53:47;;;;;;;38.17;23.52;;;;;;;;;;4999705;28;20646;-72
2021/09/09 07:56:12;;;;;;;31.65;22.55;;;;;;;;;;4991844;28;20190;-72
2021/09/09 07:58:38;;;;;;;28.08;21.00;;;;;;;;;;5000290;28;20567;-72
2021/09/09 08:01:03;;;;;;;28.80;21.45;;;;;;;;;;4991884;28;20203;-73
2021/09/09 08:03:29;;;;;;;31.60;22.05;;;;;;;;;;4999635;28;20210;-73
2021/09/09 08:05:55;;;;;;;31.02;21.00;;;;;;;;;;4991378;28;20230;-72
2021/09/09 08:08:21;;;;;;;28.30;20.90;;;;;;;;;;4997541;28;20744;-73
2021/09/09 08:10:46;;;;;;;27.67;21.05;;;;;;;;;;4991759;28;20197;-73
2021/09/09 08:13:11;;;;;;;32.92;22.02;;;;;;;;;;4999195;28;20321;-72
2021/09/09 08:15:37;;;;;;;30.45;21.92;;;;;;;;;;4998033;28;20180;-72
2021/09/09 08:18:03;;;;;;;25.98;19.50;;;;;;;;;;4992146;28;20179;-72
2021/09/09 08:20:28;;;;;;;26.10;19.73;;;;;;;;;;4996797;28;20599;-73
2021/09/09 08:22:54;;;;;;;30.33;20.95;;;;;;;;;;4991243;28;20201;-73
2021/09/09 08:25:19;;;;;;;29.65;19.80;;;;;;;;;;4998573;28;20582;-73
2021/09/09 08:27:44;;;;;;;31.02;20.15;;;;;;;;;;4991116;28;20871;-72
2021/09/09 08:30:10;;;;;;;27.75;19.65;;;;;;;;;;4997481;28;20248;-72
2021/09/09 08:32:36;;;;;;;28.08;19.48;;;;;;;;;;4989967;28;20229;-72
2021/09/09 08:35:02;;;;;;;26.00;19.95;;;;;;;;;;4999144;28;20292;-72
2021/09/09 08:37:27;;;;;;;27.98;20.15;;;;;;;;;;4990931;28;20643;-72
2021/09/09 08:39:53;;;;;;;27.83;19.40;;;;;;;;;;4999396;28;20179;-73
2021/09/09 08:42:19;;;;;;;28.08;19.20;;;;;;;;;;4997319;28;20241;-71
2021/09/09 08:44:45;;;;;;;27.38;19.77;;;;;;;;;;4993706;28;20531;-71
2021/09/09 08:47:11;;;;;;;28.00;19.60;;;;;;;;;;4997369;28;20206;-73
2021/09/09 08:49:37;;;;;;;27.90;19.25;;;;;;;;;;4989359;28;20190;-73
2021/09/09 08:52:04;;;;;;;30.13;19.08;;;;;;;;;;4998483;28;20190;-70
2021/09/09 08:54:31;;;;;;;24.23;18.05;;;;;;;;;;4989817;28;20205;-70
2021/09/09 08:56:56;;;;;;;28.05;18.75;;;;;;;;;;4997259;28;20183;-71
2021/09/09 08:59:21;;;;;;;26.52;18.02;;;;;;;;;;4989416;28;20586;-71
2021/09/09 09:02:09;;;;;;;32.38;18.23;;;;;;;;;;4997654;28;21321;-72
2021/09/09 09:04:37;;;;;;;27.30;18.10;;;;;;;;;;4989350;28;20238;-74
2021/09/09 09:07:03;;;;;;;26.50;17.67;;;;;;;;;;4997214;28;20194;-72
2021/09/09 09:09:33;;;;;;;24.00;16.20;;;;;;;;;;4989389;28;20193;-71
2021/09/09 09:12:00;;;;;;;21.48;15.75;;;;;;;;;;4996508;28;20624;-70
2021/09/09 09:14:26;;;;;;;25.25;16.42;;;;;;;;;;4988282;28;20191;-71
2021/09/09 09:16:57;;;;;;;24.30;16.38;;;;;;;;;;4996703;28;20233;-69
2021/09/09 09:19:28;;;;;;;20.65;14.25;;;;;;;;;;4988841;28;20178;-72
2021/09/09 09:22:00;;;;;;;22.67;13.00;;;;;;;;;;4995076;28;20321;-72
2021/09/09 09:24:32;;;;;;;19.75;12.85;;;;;;;;;;4996763;28;20713;-73
2021/09/09 09:27:14;;;;;;;20.40;12.43;;;;;;;;;;4996094;28;20186;-72
2021/09/09 09:29:42;;;;;;;19.98;12.68;;;;;;;;;;4997876;28;20225;-73
2021/09/09 09:32:26;;;;;;;18.73;12.43;;;;;;;;;;4989467;28;20191;-73
2021/09/09 09:35:08;;;;;;;23.05;13.48;;;;;;;;;;4998531;28;20244;-73
2021/09/09 09:37:33;;;;;;;21.35;13.25;;;;;;;;;;4997388;28;20175;-72
2021/09/09 09:40:07;;;;;;;19.55;12.13;;;;;;;;;;4996299;28;20194;-73
2021/09/09 09:42:32;;;;;;;20.25;12.43;;;;;;;;;;4989345;28;20195;-73
2021/09/09 09:45:10;;;;;;;19.42;11.77;;;;;;;;;;4998671;28;20186;-73
2021/09/09 09:47:35;;;;;;;14.43;11.43;;;;;;;;;;4987971;28;20301;-73
2021/09/09 09:50:14;;;;;;;14.82;10.65;;;;;;;;;;4996659;28;20270;-72
2021/09/09 09:52:39;;;;;;;16.67;11.05;;;;;;;;;;4989825;28;20191;-72
2021/09/09 09:55:08;;;;;;;17.83;11.13;;;;;;;;;;4996064;28;20869;-73
2021/09/09 09:57:36;;;;;;;14.13;10.32;;;;;;;;;;4990629;28;20254;-73
2021/09/09 10:00:03;;;;;;;16.27;10.38;;;;;;;;;;4994190;28;20677;-72
2021/09/09 10:02:29;;;;;;;17.05;10.68;;;;;;;;;;4989687;28;20297;-73
2021/09/09 10:04:57;;;;;;;17.80;10.70;;;;;;;;;;4997672;28;21058;-72
2021/09/09 10:07:22;;;;;;;19.70;11.35;;;;;;;;;;4991799;28;20203;-72
2021/09/09 10:09:48;;;;;;;18.33;10.55;;;;;;;;;;5000492;28;20197;-73
2021/09/09 10:12:14;;;;;;;17.30;10.20;;;;;;;;;;4989143;28;20190;-72
2021/09/09 10:14:49;;;;;;;18.25;10.13;;;;;;;;;;4998850;28;20222;-73
2021/09/09 10:17:21;;;;;;;13.95;9.85;;;;;;;;;;5001314;28;20182;-73
2021/09/09 10:19:49;;;;;;;15.30;11.45;;;;;;;;;;4998732;28;20194;-71
2021/09/09 10:22:17;;;;;;;16.67;10.35;;;;;;;;;;5016507;28;20662;-72
2021/09/09 10:25:06;;;;;;;15.25;10.25;;;;;;;;;;4990513;28;20191;-73
2021/09/09 10:27:41;;;;;;;15.38;10.80;;;;;;;;;;5001791;28;20199;-72
2021/09/09 10:30:16;;;;;;;15.40;10.57;;;;;;;;;;4990115;28;20198;-72
2021/09/09 10:32:46;;;;;;;17.10;11.55;;;;;;;;;;4998011;28;20194;-72
2021/09/09 10:35:14;;;;;;;15.43;10.68;;;;;;;;;;4994278;28;20257;-73
2021/09/09 10:37:40;;;;;;;16.92;10.70;;;;;;;;;;4999849;28;20266;-71
2021/09/09 10:40:06;;;;;;;15.93;10.82;;;;;;;;;;4992535;28;20333;-72
2021/09/09 10:42:39;;;;;;;17.88;11.20;;;;;;;;;;5001058;28;20202;-71
2021/09/09 10:45:11;;;;;;;16.48;10.93;;;;;;;;;;4992420;28;20194;-71
2021/09/09 10:47:50;;;;;;;15.32;10.77;;;;;;;;;;4999246;28;20619;-71
2021/09/09 10:50:15;;;;;;;15.45;10.15;;;;;;;;;;4992179;28;20195;-72
2021/09/09 10:53:07;;;;;;;15.50;10.85;;;;;;;;;;4995344;28;20187;-73
2021/09/09 10:55:35;;;;;;;15.15;10.45;;;;;;;;;;4992874;28;20194;-72
2021/09/09 10:58:12;;;;;;;15.15;10.05;;;;;;;;;;4999710;28;20203;-72
2021/09/09 11:00:50;;;;;;;13.68;10.23;;;;;;;;;;4991561;28;20222;-70
2021/09/09 11:03:35;;;;;;;14.45;9.95;;;;;;;;;;4997707;28;20191;-70
2021/09/09 11:06:01;;;;;;;14.20;9.73;;;;;;;;;;4992636;28;21786;-71
2021/09/09 11:08:30;;;;;;;13.73;10.00;;;;;;;;;;4998148;28;20314;-71
2021/09/09 11:10:55;;;;;;;15.60;9.05;;;;;;;;;;4993299;28;20206;-72
2021/09/09 11:13:29;;;;;;;12.73;9.20;;;;;;;;;;5000660;28;20182;-68
2021/09/09 11:15:55;;;;;;;11.95;9.73;;;;;;;;;;4991950;28;20645;-72
2021/09/09 11:18:32;;;;;;;15.35;8.57;;;;;;;;;;4997439;28;20179;-70
2021/09/09 11:21:06;;;;;;;13.43;8.65;;;;;;;;;;4992219;28;20207;-69
2021/09/09 11:23:35;;;;;;;13.68;9.00;;;;;;;;;;4999006;28;20555;-69
2021/09/09 11:26:13;;;;;;;13.30;9.80;;;;;;;;;;4992824;28;21423;-69
2021/09/09 11:28:39;;;;;;;11.50;8.68;;;;;;;;;;5001276;28;20209;-69
2021/09/09 11:31:09;;;;;;;12.88;8.80;;;;;;;;;;4999327;28;20187;-71
2021/09/09 11:34:01;;;;;;;10.82;9.38;;;;;;;;;;4991402;28;20202;-72
2021/09/09 11:36:47;;;;;;;14.48;9.60;;;;;;;;;;4998313;28;20194;-71
2021/09/09 11:39:19;;;;;;;16.38;9.07;;;;;;;;;;4999690;28;20579;-71
2021/09/09 11:41:45;;;;;;;14.07;10.18;;;;;;;;;;4992163;28;20197;-71
2021/09/09 11:44:23;;;;;;;13.75;9.50;;;;;;;;;;4300468;28;10000834;-70
2021/09/09 11:46:52;;;;;;;13.40;9.15;;;;;;;;;;4993880;28;20199;-70
2021/09/09 11:49:22;;;;;;;12.25;8.95;;;;;;;;;;4989002;28;20308;-69
2021/09/09 11:51:52;;;;;;;11.38;8.90;;;;;;;;;;4996919;28;20273;-69
2021/09/09 11:54:22;;;;;;;12.30;9.23;;;;;;;;;;4987676;28;20339;-70
2021/09/09 11:56:49;;;;;;;15.15;8.90;;;;;;;;;;4994029;28;20288;-69
2021/09/09 11:59:19;;;;;;;15.07;9.52;;;;;;;;;;4989248;28;20229;-70
2021/09/09 12:02:05;;;;;;;11.10;9.20;;;;;;;;;;4995154;28;20191;-71
2021/09/09 12:04:31;;;;;;;13.52;10.32;;;;;;;;;;4986588;28;20226;-69
2021/09/09 12:06:57;;;;;;;15.77;9.75;;;;;;;;;;4996875;28;20630;-68
2021/09/09 12:09:25;;;;;;;14.90;9.77;;;;;;;;;;4985169;28;20199;-72
2021/09/09 12:12:11;;;;;;;15.63;9.48;;;;;;;;;;4994612;28;20190;-70
2021/09/09 12:14:38;;;;;;;19.17;10.35;;;;;;;;;;4981570;28;20457;-71
2021/09/09 12:17:15;;;;;;;12.68;9.50;;;;;;;;;;4994527;28;20186;-71
2021/09/09 12:20:22;;;;;;;19.05;10.18;;;;;;;;;;4986223;28;20198;-72
2021/09/09 12:23:00;;;;;;;14.18;9.68;;;;;;;;;;4989212;28;20221;-69
2021/09/09 12:25:33;;;;;;;16.88;10.48;;;;;;;;;;4981524;28;20203;-69
2021/09/09 12:28:13;;;;;;;12.70;9.75;;;;;;;;;;4994314;28;20238;-69
2021/09/09 12:30:51;;;;;;;16.52;9.98;;;;;;;;;;4986354;28;20273;-70
2021/09/09 12:33:37;;;;;;;16.60;10.80;;;;;;;;;;4994439;28;20752;-69
2021/09/09 12:36:14;;;;;;;15.23;9.68;;;;;;;;;;4987354;28;20197;-69
2021/09/09 12:38:55;;;;;;;15.15;9.73;;;;;;;;;;4993920;28;20198;-69
2021/09/09 12:41:21;;;;;;;18.35;9.77;;;;;;;;;;4986168;28;21989;-68
2021/09/09 12:43:50;;;;;;;15.52;9.93;;;;;;;;;;4994538;28;20217;-69
2021/09/09 12:46:32;;;;;;;18.27;10.32;;;;;;;;;;4986799;28;20194;-69
2021/09/09 12:49:06;;;;;;;12.75;9.50;;;;;;;;;;4993102;28;20229;-69
2021/09/09 12:51:32;;;;;;;11.38;9.57;;;;;;;;;;4984226;28;20264;-69
2021/09/09 12:53:57;;;;;;;16.02;9.15;;;;;;;;;;4991914;28;20225;-70
2021/09/09 12:56:23;;;;;;;15.32;9.70;;;;;;;;;;4983327;28;20226;-68
2021/09/09 12:58:48;;;;;;;12.85;9.55;;;;;;;;;;4988867;28;20211;-68
2021/09/09 13:01:13;;;;;;;10.20;8.70;;;;;;;;;;4982401;28;20202;-69
2021/09/09 13:03:39;;;;;;;12.25;9.50;;;;;;;;;;4992157;28;20202;-69
2021/09/09 13:06:06;;;;;;;12.38;8.73;;;;;;;;;;4992166;28;20244;-72
2021/09/09 13:08:31;;;;;;;14.63;9.98;;;;;;;;;;4984484;28;20219;-69
2021/09/09 13:10:57;;;;;;;16.90;9.65;;;;;;;;;;4991337;28;20190;-69
2021/09/09 13:13:23;;;;;;;13.27;9.68;;;;;;;;;;4981168;28;20252;-70
2021/09/09 13:15:48;;;;;;;18.15;10.48;;;;;;;;;;4991606;28;20686;-70
2021/09/09 13:18:15;;;;;;;14.90;10.15;;;;;;;;;;4982650;28;20197;-70
2021/09/09 13:20:40;;;;;;;12.77;10.63;;;;;;;;;;4988604;28;20194;-71
2021/09/09 13:23:07;;;;;;;13.75;11.10;;;;;;;;;;4995830;28;20546;-70
2021/09/09 13:25:34;;;;;;;19.42;10.90;;;;;;;;;;4989444;28;20310;-71
2021/09/09 13:28:00;;;;;;;16.45;11.52;;;;;;;;;;4980597;28;20246;-71
2021/09/09 13:30:25;;;;;;;17.30;11.57;;;;;;;;;;4987918;28;20294;-72
2021/09/09 13:32:51;;;;;;;18.98;10.95;;;;;;;;;;4981783;28;20552;-71
2021/09/09 13:35:16;;;;;;;20.98;12.13;;;;;;;;;;4991046;28;20195;-71
2021/09/09 13:37:42;;;;;;;19.13;12.45;;;;;;;;;;4990147;28;20252;-71
2021/09/09 13:40:08;;;;;;;19.58;12.98;;;;;;;;;;4981897;28;20190;-72
2021/09/09 13:42:33;;;;;;;20.40;13.27;;;;;;;;;;4991593;28;20292;-70
2021/09/09 13:44:59;;;;;;;16.73;14.02;;;;;;;;;;4988575;28;20623;-72
2021/09/09 13:47:24;;;;;;;16.17;11.65;;;;;;;;;;4995416;28;20221;-71
2021/09/09 13:49:50;;;;;;;13.98;11.38;;;;;;;;;;4988708;28;20179;-71
2021/09/09 13:52:15;;;;;;;15.85;11.38;;;;;;;;;;4302752;28;10000897;-72
2021/09/09 13:54:40;;;;;;;11.95;10.38;;;;;;;;;;4985829;28;20695;-73
2021/09/09 13:57:06;;;;;;;15.40;10.63;;;;;;;;;;4993532;28;20879;-71
2021/09/09 13:59:32;;;;;;;18.08;11.93;;;;;;;;;;4986805;28;20191;-75
2021/09/09 14:01:58;;;;;;;18.63;11.38;;;;;;;;;;4991555;28;20749;-74
2021/09/09 14:04:24;;;;;;;12.98;10.88;;;;;;;;;;4985204;28;20592;-71
2021/09/09 14:06:49;;;;;;;17.92;11.20;;;;;;;;;;4993505;28;20195;-69
2021/09/09 14:09:15;;;;;;;14.73;10.65;;;;;;;;;;4992734;28;21136;-71
2021/09/09 14:11:42;;;;;;;14.20;10.95;;;;;;;;;;4981288;28;20690;-72
2021/09/09 14:14:07;;;;;;;15.13;11.40;;;;;;;;;;4989700;28;20194;-70
2021/09/09 14:16:32;;;;;;;12.57;11.27;;;;;;;;;;4981700;28;20187;-73
2021/09/09 14:18:58;;;;;;;15.15;11.32;;;;;;;;;;4989399;28;20218;-71